createdAt,value
2019-03-09T00:02:08.187Z,1.30
2019-03-09T00:05:08.652Z,1.10
2019-03-09T00:08:08.909Z,1.27
2019-03-09T00:11:09.695Z,0.83
2019-03-09T00:13:58.214Z,1.40
2019-03-09T00:17:06.122Z,1.03
2019-03-09T00:20:07.016Z,1.27
2019-03-09T00:23:09.540Z,1.40
2019-03-09T00:26:17.567Z,1.30
2019-03-09T00:32:46.814Z,1.40
2019-03-09T00:35:47.137Z,1.10
2019-03-09T00:38:47.648Z,1.00
2019-03-09T00:41:48.198Z,1.20
2019-03-09T00:44:48.530Z,1.20
2019-03-09T00:47:49.502Z,0.77
2019-03-09T00:50:50.023Z,1.13
2019-03-09T00:53:51.211Z,1.20
2019-03-09T00:56:52.350Z,1.20
2019-03-09T00:59:53.187Z,1.00
2019-03-09T01:02:53.645Z,1.00
2019-03-09T01:05:53.897Z,1.20
2019-03-09T01:08:54.358Z,1.00
2019-03-09T01:11:54.879Z,1.20
2019-03-09T01:14:55.808Z,1.00
2019-03-09T01:17:56.337Z,1.10
2019-03-09T01:20:56.680Z,1.00
2019-03-09T01:23:57.914Z,0.97
2019-03-09T01:26:58.321Z,1.20
2019-03-09T01:29:58.954Z,1.10
2019-03-09T01:32:59.357Z,1.20
2019-03-09T01:35:59.651Z,1.00
2019-03-09T01:39:00.535Z,1.20
2019-03-09T01:42:01.199Z,1.10
2019-03-09T01:45:02.395Z,1.20
2019-03-09T01:48:03.542Z,1.17
2019-03-09T01:51:04.541Z,1.10
2019-03-09T01:54:05.170Z,0.90
2019-03-09T01:57:06.446Z,0.97
2019-03-09T02:00:06.912Z,0.80
2019-03-09T02:03:07.357Z,0.73
2019-03-09T02:06:07.658Z,0.70
2019-03-09T02:09:08.717Z,1.20
2019-03-09T02:12:09.153Z,1.10
2019-03-09T02:15:09.546Z,0.73
2019-03-09T02:18:09.814Z,0.90
2019-03-09T02:21:10.938Z,0.90
2019-03-09T02:24:12.031Z,1.00
2019-03-09T02:27:12.398Z,1.20
2019-03-09T02:30:13.692Z,0.80
2019-03-09T02:33:14.003Z,0.90
2019-03-09T02:36:14.369Z,1.00
2019-03-09T02:39:19.699Z,0.90
2019-03-09T02:42:20.408Z,1.17
2019-03-09T02:48:35.951Z,1.00
2019-03-09T02:51:36.552Z,1.00
2019-03-09T02:54:36.884Z,0.97
2019-03-09T02:57:38.210Z,1.10
2019-03-09T03:00:40.236Z,1.20
2019-03-09T03:03:41.210Z,1.00
2019-03-09T03:06:41.633Z,1.13
2019-03-09T03:09:42.075Z,1.20
2019-03-09T03:12:42.970Z,1.30
2019-03-09T03:15:44.177Z,0.80
2019-03-09T03:18:44.894Z,1.30
2019-03-09T03:21:33.430Z,1.40
2019-03-09T03:24:41.322Z,1.47
2019-03-09T03:27:49.186Z,0.90
2019-03-09T03:30:50.100Z,1.00
2019-03-09T03:33:50.562Z,1.03
2019-03-09T03:36:51.147Z,1.13
2019-03-09T03:39:51.835Z,1.20
2019-03-09T03:42:52.915Z,0.80
2019-03-09T03:45:53.258Z,1.20
2019-03-09T03:48:53.850Z,0.90
2019-03-09T03:51:54.208Z,1.10
2019-03-09T03:54:54.835Z,0.90
2019-03-09T03:57:55.282Z,1.00
2019-03-09T04:00:55.815Z,0.80
2019-03-09T04:03:56.539Z,1.20
2019-03-09T04:06:57.637Z,0.80
2019-03-09T04:09:58.013Z,0.90
2019-03-09T04:12:59.169Z,0.70
2019-03-09T04:15:59.558Z,0.80
2019-03-09T04:19:00.302Z,1.00
2019-03-09T04:22:01.562Z,0.50
2019-03-09T04:25:02.679Z,0.80
2019-03-09T04:28:02.997Z,0.50
2019-03-09T04:31:03.441Z,0.70
2019-03-09T04:34:04.650Z,0.60
2019-03-09T04:37:05.831Z,0.67
2019-03-09T04:40:06.665Z,0.67
2019-03-09T04:43:07.766Z,0.80
2019-03-09T04:46:08.086Z,0.70
2019-03-09T04:49:09.033Z,0.70
2019-03-09T04:52:09.420Z,0.80
2019-03-09T04:55:09.765Z,0.70
2019-03-09T04:58:10.237Z,0.77
2019-03-09T05:01:10.602Z,0.70
2019-03-09T05:04:11.302Z,0.80
2019-03-09T05:07:12.334Z,0.70
2019-03-09T05:10:12.643Z,0.90
2019-03-09T05:13:12.924Z,0.80
2019-03-09T05:16:13.957Z,0.90
2019-03-09T05:19:14.332Z,0.80
2019-03-09T05:22:14.797Z,0.70
2019-03-09T05:25:15.861Z,0.80
2019-03-09T05:28:16.541Z,0.80
2019-03-09T05:31:17.014Z,0.90
2019-03-09T05:34:17.556Z,1.00
2019-03-09T05:37:18.550Z,0.70
2019-03-09T05:40:18.989Z,1.00
2019-03-09T05:43:19.486Z,1.10
2019-03-09T05:46:20.064Z,1.00
2019-03-09T05:49:21.350Z,0.60
2019-03-09T05:52:21.775Z,1.40
2019-03-09T05:55:22.078Z,0.90
2019-03-09T05:58:22.644Z,0.80
2019-03-09T06:01:22.967Z,0.90
2019-03-09T06:04:23.713Z,0.90
2019-03-09T06:07:24.836Z,0.90
2019-03-09T06:10:25.129Z,1.00
2019-03-09T06:13:25.618Z,1.10
2019-03-09T06:16:26.127Z,1.20
2019-03-09T06:19:26.678Z,2.93
2019-03-09T06:22:27.041Z,1.20
2019-03-09T06:25:27.407Z,1.10
2019-03-09T06:28:28.652Z,1.17
2019-03-09T06:31:29.495Z,1.37
2019-03-09T06:34:29.964Z,0.90
2019-03-09T06:37:30.413Z,0.80
2019-03-09T06:40:31.646Z,1.20
2019-03-09T06:43:32.464Z,0.77
2019-03-09T06:46:32.753Z,0.90
2019-03-09T06:49:33.634Z,0.97
2019-03-09T06:52:34.808Z,0.90
2019-03-09T06:55:35.491Z,0.83
2019-03-09T06:58:35.993Z,0.90
2019-03-09T07:01:36.654Z,0.80
2019-03-09T07:04:37.818Z,0.87
2019-03-09T07:07:38.351Z,0.70
2019-03-09T07:10:38.858Z,1.00
2019-03-09T07:13:27.428Z,0.93
2019-03-09T07:16:35.293Z,0.87
2019-03-09T07:19:36.173Z,0.87
2019-03-09T07:22:36.739Z,0.63
2019-03-09T07:25:38.013Z,0.70
2019-03-09T07:28:38.502Z,0.57
2019-03-09T07:31:38.811Z,0.90
2019-03-09T07:34:39.314Z,0.90
2019-03-09T07:37:40.455Z,0.60
2019-03-09T07:40:40.881Z,0.50
2019-03-09T07:43:41.405Z,0.50
2019-03-09T07:46:30.316Z,0.67
2019-03-09T07:49:38.297Z,0.60
2019-03-09T07:52:38.654Z,0.63
2019-03-09T07:55:39.738Z,0.67
2019-03-09T07:58:40.775Z,0.60
2019-03-09T08:01:41.241Z,0.60
2019-03-09T08:04:41.763Z,0.80
2019-03-09T08:07:42.457Z,0.70
2019-03-09T08:10:43.153Z,0.77
2019-03-09T08:13:44.054Z,0.90
2019-03-09T08:16:35.920Z,0.43
2019-03-09T08:19:42.177Z,0.60
2019-03-09T08:22:42.530Z,0.40
2019-03-09T08:25:43.602Z,0.50
2019-03-09T08:28:44.265Z,0.57
2019-03-09T08:31:32.832Z,0.53
2019-03-09T08:34:40.826Z,0.50
2019-03-09T08:37:49.297Z,0.57
2019-03-09T08:40:49.910Z,0.57
2019-03-09T08:43:51.070Z,0.30
2019-03-09T08:46:51.874Z,0.43
2019-03-09T08:49:52.458Z,0.77
2019-03-09T08:52:52.815Z,0.50
2019-03-09T08:55:53.178Z,0.63
2019-03-09T08:58:54.328Z,0.43
2019-03-09T09:01:54.834Z,0.60
2019-03-09T09:04:55.706Z,0.53
2019-03-09T09:07:56.471Z,0.53
2019-03-09T09:10:56.913Z,0.40
2019-03-09T09:13:58.117Z,0.60
2019-03-09T09:16:58.776Z,0.50
2019-03-09T09:19:59.947Z,0.70
2019-03-09T09:23:00.334Z,0.60
2019-03-09T09:26:01.175Z,0.60
2019-03-09T09:29:01.738Z,0.70
2019-03-09T09:32:02.184Z,0.33
2019-03-09T09:35:02.630Z,0.63
2019-03-09T09:38:03.321Z,0.77
2019-03-09T09:41:03.811Z,0.37
2019-03-09T09:44:04.095Z,0.30
2019-03-09T09:47:04.477Z,0.33
2019-03-09T09:50:04.802Z,0.50
2019-03-09T09:53:05.099Z,0.30
2019-03-09T09:56:06.039Z,0.20
2019-03-09T09:59:07.203Z,0.60
2019-03-09T10:02:07.765Z,0.30
2019-03-09T10:05:08.171Z,0.20
2019-03-09T10:08:09.408Z,0.30
2019-03-09T10:11:10.561Z,0.53
2019-03-09T10:14:11.710Z,0.30
2019-03-09T10:17:12.849Z,0.40
2019-03-09T10:20:14.085Z,0.47
2019-03-09T10:23:14.474Z,0.40
2019-03-09T10:26:14.912Z,0.33
2019-03-09T10:29:16.153Z,0.40
2019-03-09T10:32:17.141Z,0.40
2019-03-09T10:35:18.425Z,0.50
2019-03-09T10:38:19.677Z,0.47
2019-03-09T10:41:20.862Z,0.27
2019-03-09T10:44:21.238Z,0.30
2019-03-09T10:47:21.734Z,0.50
2019-03-09T10:50:22.036Z,0.40
2019-03-09T10:53:22.640Z,0.50
2019-03-09T10:56:23.844Z,0.40
2019-03-09T10:59:24.406Z,0.40
2019-03-09T11:02:24.977Z,0.40
2019-03-09T11:05:25.651Z,0.50
2019-03-09T11:08:26.947Z,0.50
2019-03-09T11:11:28.067Z,0.30
2019-03-09T11:14:29.131Z,0.43
2019-03-09T11:17:30.266Z,0.50
2019-03-09T11:20:31.151Z,0.40
2019-03-09T11:23:34.245Z,0.50
2019-03-09T11:26:34.365Z,0.50
2019-03-09T11:29:34.932Z,0.60
2019-03-09T11:32:35.261Z,0.47
2019-03-09T11:35:35.819Z,0.50
2019-03-09T11:38:36.262Z,0.60
2019-03-09T11:41:36.761Z,0.60
2019-03-09T11:44:37.679Z,0.40
2019-03-09T11:47:38.102Z,0.43
2019-03-09T11:50:38.588Z,0.40
2019-03-09T11:53:39.158Z,0.40
2019-03-09T11:56:40.245Z,0.60
2019-03-09T11:59:40.919Z,0.60
2019-03-09T12:02:41.698Z,0.50
2019-03-09T12:05:42.095Z,0.43
2019-03-09T12:08:42.428Z,0.43
2019-03-09T12:11:42.865Z,0.40
2019-03-09T12:14:43.344Z,0.60
2019-03-09T12:17:43.917Z,0.40
2019-03-09T12:20:44.941Z,0.53
2019-03-09T12:23:46.016Z,0.40
2019-03-09T12:26:47.333Z,0.60
2019-03-09T12:29:48.005Z,0.57
2019-03-09T12:32:48.624Z,0.60
2019-03-09T12:35:49.045Z,0.70
2019-03-09T12:38:49.562Z,0.50
2019-03-09T12:41:52.434Z,0.63
2019-03-09T12:44:53.041Z,0.60
2019-03-09T12:47:53.668Z,0.80
2019-03-09T12:50:54.138Z,0.90
2019-03-09T12:53:55.040Z,0.93
2019-03-09T12:56:55.711Z,0.90
2019-03-09T12:59:56.158Z,1.00
2019-03-09T13:02:56.786Z,1.03
2019-03-09T13:05:57.251Z,0.80
2019-03-09T13:08:57.896Z,0.90
2019-03-09T13:11:58.298Z,1.17
2019-03-09T13:14:58.673Z,1.00
2019-03-09T13:17:59.323Z,1.67
2019-03-09T13:21:00.031Z,1.03
2019-03-09T13:24:00.780Z,1.30
2019-03-09T13:27:01.974Z,1.00
2019-03-09T13:30:02.634Z,1.10
2019-03-09T13:33:03.075Z,1.10
2019-03-09T13:36:03.765Z,1.23
2019-03-09T13:38:52.405Z,0.90
2019-03-09T13:42:00.256Z,1.20
2019-03-09T13:45:00.931Z,1.17
2019-03-09T13:48:01.353Z,0.90
2019-03-09T13:51:01.748Z,0.80
2019-03-09T13:54:02.212Z,1.40
2019-03-09T13:57:02.839Z,0.80
2019-03-09T14:00:03.215Z,0.87
2019-03-09T14:03:03.952Z,0.60
2019-03-09T14:06:04.571Z,0.70
2019-03-09T14:09:04.918Z,0.80
2019-03-09T14:12:05.501Z,0.83
2019-03-09T14:15:05.974Z,0.60
2019-03-09T14:18:06.619Z,0.80
2019-03-09T14:21:14.617Z,0.77
2019-03-09T14:24:22.473Z,0.67
2019-03-09T14:27:22.833Z,0.60
2019-03-09T14:30:23.738Z,0.50
2019-03-09T14:33:24.118Z,0.63
2019-03-09T14:36:24.646Z,0.50
2019-03-09T14:39:25.351Z,0.60
2019-03-09T14:42:25.805Z,0.53
2019-03-09T14:45:26.954Z,0.60
2019-03-09T14:48:27.761Z,0.50
2019-03-09T14:51:28.531Z,0.60
2019-03-09T14:54:29.591Z,0.47
2019-03-09T14:57:30.711Z,0.40
2019-03-09T15:00:31.388Z,0.60
2019-03-09T15:03:31.812Z,0.50
2019-03-09T15:06:32.367Z,0.33
2019-03-09T15:09:33.045Z,0.47
2019-03-09T15:12:33.450Z,0.60
2019-03-09T15:15:34.609Z,0.27
2019-03-09T15:18:35.146Z,0.57
2019-03-09T15:21:35.465Z,0.30
2019-03-09T15:24:35.992Z,0.50
2019-03-09T15:27:36.596Z,0.53
2019-03-09T15:30:36.849Z,0.60
2019-03-09T15:33:37.794Z,0.37
2019-03-09T15:36:38.520Z,0.30
2019-03-09T15:39:39.114Z,0.40
2019-03-09T15:42:40.489Z,0.47
2019-03-09T15:45:40.853Z,0.77
2019-03-09T15:48:41.709Z,0.40
2019-03-09T15:51:41.984Z,0.53
2019-03-09T15:54:42.374Z,0.40
2019-03-09T15:57:43.256Z,0.70
2019-03-09T16:00:43.899Z,0.70
2019-03-09T16:03:44.333Z,0.30
2019-03-09T16:06:44.914Z,0.60
2019-03-09T16:09:45.318Z,0.40
2019-03-09T16:12:46.238Z,0.40
2019-03-09T16:15:46.851Z,0.50
2019-03-09T16:18:47.450Z,0.50
2019-03-09T16:21:47.840Z,0.67
2019-03-09T16:24:48.215Z,0.50
2019-03-09T16:27:48.594Z,0.53
2019-03-09T16:30:48.921Z,0.80
2019-03-09T16:33:49.758Z,0.40
2019-03-09T16:36:50.111Z,0.70
2019-03-09T16:39:50.801Z,0.70
2019-03-09T16:42:51.316Z,0.70
2019-03-09T16:45:52.093Z,0.60
2019-03-09T16:48:52.943Z,0.80
2019-03-09T16:51:53.705Z,0.60
2019-03-09T16:54:54.922Z,0.53
2019-03-09T16:57:55.334Z,0.80
2019-03-09T17:00:56.113Z,0.67
2019-03-09T17:03:56.682Z,0.70
2019-03-09T17:06:57.324Z,0.63
2019-03-09T17:09:58.208Z,0.50
2019-03-09T17:12:58.544Z,0.80
2019-03-09T17:15:58.906Z,0.67
2019-03-09T17:19:01.701Z,0.40
2019-03-09T17:22:02.509Z,0.40
2019-03-09T17:25:02.880Z,0.70
2019-03-09T17:28:03.705Z,0.90
2019-03-09T17:31:04.446Z,0.90
2019-03-09T17:34:05.397Z,0.60
2019-03-09T17:37:05.885Z,0.87
2019-03-09T17:40:06.342Z,0.60
2019-03-09T17:43:06.681Z,0.60
2019-03-09T17:46:07.059Z,0.60
2019-03-09T17:49:08.997Z,0.60
2019-03-09T17:52:09.858Z,0.60
2019-03-09T17:55:10.537Z,0.60
2019-03-09T17:58:11.424Z,0.60
2019-03-09T18:01:12.928Z,0.70
2019-03-09T18:04:13.401Z,0.60
2019-03-09T18:07:13.906Z,0.87
2019-03-09T18:10:14.364Z,0.77
2019-03-09T18:13:14.664Z,0.80
2019-03-09T18:16:16.005Z,0.80
2019-03-09T18:19:16.895Z,0.60
2019-03-09T18:22:17.380Z,0.57
2019-03-09T18:25:17.791Z,0.80
2019-03-09T18:28:18.281Z,0.80
2019-03-09T18:31:19.141Z,0.70
2019-03-09T18:34:19.833Z,0.80
2019-03-09T18:37:20.301Z,0.70
2019-03-09T18:40:20.681Z,0.70
2019-03-09T18:43:21.022Z,0.90
2019-03-09T18:46:21.357Z,0.60
2019-03-09T18:49:22.509Z,0.73
2019-03-09T18:52:23.096Z,0.80
2019-03-09T18:55:23.639Z,0.67
2019-03-09T18:58:23.882Z,0.67
2019-03-09T19:01:25.115Z,0.80
2019-03-09T19:07:27.018Z,0.70
2019-03-09T19:10:35.041Z,0.87
2019-03-09T19:13:36.028Z,0.70
2019-03-09T19:16:37.033Z,0.60
2019-03-09T19:19:38.457Z,0.70
2019-03-09T19:22:38.821Z,0.77
2019-03-09T19:25:39.348Z,0.60
2019-03-09T19:28:39.691Z,0.70
2019-03-09T19:31:39.994Z,0.70
2019-03-09T19:34:40.630Z,0.53
2019-03-09T19:37:41.003Z,0.60
2019-03-09T19:40:41.688Z,0.70
2019-03-09T19:43:42.129Z,0.90
2019-03-09T19:46:42.820Z,1.00
2019-03-09T19:49:44.014Z,0.60
2019-03-09T19:52:44.376Z,0.70
2019-03-09T19:55:45.433Z,0.60
2019-03-09T19:58:46.298Z,0.70
2019-03-09T20:01:46.698Z,0.87
2019-03-09T20:04:47.407Z,0.70
2019-03-09T20:07:47.758Z,0.67
2019-03-09T20:10:48.317Z,0.70
2019-03-09T20:13:48.676Z,0.80
2019-03-09T20:16:48.961Z,0.83
2019-03-09T20:19:49.340Z,1.10
2019-03-09T20:22:49.849Z,0.77
2019-03-09T20:25:50.458Z,0.60
2019-03-09T20:28:51.103Z,1.30
2019-03-09T20:31:51.444Z,1.03
2019-03-09T20:34:52.207Z,1.17
2019-03-09T20:37:52.712Z,1.13
2019-03-09T20:40:53.610Z,1.20
2019-03-09T20:43:54.059Z,1.40
2019-03-09T20:46:54.404Z,1.30
2019-03-09T20:49:55.384Z,1.50
2019-03-09T20:52:55.713Z,1.20
2019-03-09T20:55:56.029Z,1.30
2019-03-09T20:58:56.448Z,1.50
2019-03-09T21:01:57.679Z,1.40
2019-03-09T21:04:58.720Z,1.40
2019-03-09T21:07:59.385Z,1.53
2019-03-09T21:11:03.958Z,1.40
2019-03-09T21:14:01.927Z,1.40
2019-03-09T21:17:02.502Z,1.47
2019-03-09T21:20:03.332Z,1.50
2019-03-09T21:23:04.205Z,1.40
2019-03-09T21:26:04.486Z,1.40
2019-03-09T21:29:04.916Z,1.60
2019-03-09T21:32:06.054Z,1.37
2019-03-09T21:35:06.785Z,1.43
2019-03-09T21:38:07.084Z,1.60
2019-03-09T21:41:07.451Z,1.53
2019-03-09T21:44:07.848Z,1.23
2019-03-09T21:47:08.437Z,1.73
2019-03-09T21:50:09.023Z,1.50
2019-03-09T21:53:09.307Z,1.27
2019-03-09T21:56:10.572Z,1.40
2019-03-09T21:59:11.232Z,1.30
2019-03-09T22:02:11.695Z,1.33
2019-03-09T22:05:12.826Z,1.63
2019-03-09T22:08:13.141Z,1.13
2019-03-09T22:11:13.931Z,1.53
2019-03-09T22:14:14.455Z,1.67
2019-03-09T22:17:14.962Z,1.17
2019-03-09T22:20:15.725Z,1.20
2019-03-09T22:23:16.265Z,1.30
2019-03-09T22:26:16.834Z,1.30
2019-03-09T22:29:18.174Z,1.57
2019-03-09T22:32:19.645Z,1.37
2019-03-09T22:35:20.681Z,1.00
2019-03-09T22:38:21.387Z,1.40
2019-03-09T22:41:21.733Z,1.20
2019-03-09T22:44:22.065Z,1.03
2019-03-09T22:47:23.283Z,1.30
2019-03-09T22:50:23.985Z,1.10
2019-03-09T22:53:24.515Z,1.17
2019-03-09T22:56:24.986Z,1.00
2019-03-09T22:59:25.270Z,1.10
2019-03-09T23:02:25.917Z,1.30
2019-03-09T23:05:26.335Z,1.10
2019-03-09T23:08:26.881Z,1.00
2019-03-09T23:11:27.805Z,0.80
2019-03-09T23:14:28.226Z,1.00
2019-03-09T23:17:28.677Z,0.83
2019-03-09T23:20:29.892Z,1.00
2019-03-09T23:23:30.429Z,1.03
2019-03-09T23:26:31.822Z,1.20
2019-03-09T23:29:32.189Z,1.10
2019-03-09T23:32:32.928Z,0.97
2019-03-09T23:35:34.229Z,1.17
2019-03-09T23:38:35.473Z,1.20
2019-03-09T23:41:36.761Z,1.27
2019-03-09T23:44:38.214Z,0.97
2019-03-09T23:47:38.850Z,0.90
2019-03-09T23:50:39.101Z,1.10
2019-03-09T23:53:39.771Z,0.90
2019-03-09T23:56:40.255Z,1.10
2019-03-09T23:59:40.730Z,0.90
